sensor_id;sensor_type;location;lat;lon;timestamp;P1;durP1;ratioP1;P2;durP2;ratioP2
68843;SDS011;55850;51.244;6.824;2022-09-09T00:01:28;2.97;;;0.50;;
68843;SDS011;55850;51.244;6.824;2022-09-09T00:06:43;1.17;;;0.50;;
68843;SDS011;55850;51.244;6.824;2022-09-09T00:11:54;2.53;;;0.50;;
68843;SDS011;55850;51.244;6.824;2022-09-09T00:17:08;1.60;;;0.60;;
68843;SDS011;55850;51.244;6.824;2022-09-09T00:22:18;0.93;;;0.55;;
68843;SDS011;55850;51.244;6.824;2022-09-09T00:27:29;0.88;;;0.52;;
68843;SDS011;55850;51.244;6.824;2022-09-09T00:32:40;1.33;;;0.40;;
68843;SDS011;55850;51.244;6.824;2022-09-09T00:37:46;1.23;;;0.40;;
68843;SDS011;55850;51.244;6.824;2022-09-09T00:43:03;0.77;;;0.35;;
68843;SDS011;55850;51.244;6.824;2022-09-09T00:48:25;1.80;;;0.60;;
68843;SDS011;55850;51.244;6.824;2022-09-09T00:53:39;3.90;;;0.50;;
68843;SDS011;55850;51.244;6.824;2022-09-09T00:59:03;1.42;;;0.60;;
68843;SDS011;55850;51.244;6.824;2022-09-09T01:04:23;1.73;;;0.50;;
68843;SDS011;55850;51.244;6.824;2022-09-09T01:09:38;0.80;;;0.40;;
68843;SDS011;55850;51.244;6.824;2022-09-09T01:14:56;2.25;;;0.60;;
68843;SDS011;55850;51.244;6.824;2022-09-09T01:20:10;1.98;;;0.70;;
68843;SDS011;55850;51.244;6.824;2022-09-09T01:31:17;2.38;;;0.65;;
68843;SDS011;55850;51.244;6.824;2022-09-09T01:36:26;1.90;;;0.88;;
68843;SDS011;55850;51.244;6.824;2022-09-09T01:41:40;4.33;;;1.47;;
68843;SDS011;55850;51.244;6.824;2022-09-09T01:46:48;3.10;;;1.13;;
68843;SDS011;55850;51.244;6.824;2022-09-09T01:51:56;5.80;;;1.20;;
68843;SDS011;55850;51.244;6.824;2022-09-09T01:57:11;4.13;;;0.88;;
68843;SDS011;55850;51.244;6.824;2022-09-09T02:02:25;2.87;;;1.17;;
68843;SDS011;55850;51.244;6.824;2022-09-09T02:07:46;4.93;;;1.23;;
68843;SDS011;55850;51.244;6.824;2022-09-09T02:13:07;3.17;;;1.30;;
68843;SDS011;55850;51.244;6.824;2022-09-09T02:18:18;2.33;;;1.10;;
68843;SDS011;55850;51.244;6.824;2022-09-09T02:23:29;4.45;;;1.38;;
68843;SDS011;55850;51.244;6.824;2022-09-09T02:28:42;4.00;;;1.15;;
68843;SDS011;55850;51.244;6.824;2022-09-09T02:33:50;7.17;;;1.40;;
68843;SDS011;55850;51.244;6.824;2022-09-09T02:39:00;3.67;;;1.13;;
68843;SDS011;55850;51.244;6.824;2022-09-09T02:44:12;4.30;;;1.08;;
68843;SDS011;55850;51.244;6.824;2022-09-09T02:49:25;3.92;;;1.00;;
68843;SDS011;55850;51.244;6.824;2022-09-09T02:54:39;2.87;;;0.83;;
68843;SDS011;55850;51.244;6.824;2022-09-09T02:59:49;2.20;;;0.82;;
68843;SDS011;55850;51.244;6.824;2022-09-09T03:04:56;2.30;;;0.90;;
68843;SDS011;55850;51.244;6.824;2022-09-09T03:10:02;2.43;;;1.03;;
68843;SDS011;55850;51.244;6.824;2022-09-09T03:15:13;2.00;;;0.82;;
68843;SDS011;55850;51.244;6.824;2022-09-09T03:20:19;1.73;;;1.02;;
68843;SDS011;55850;51.244;6.824;2022-09-09T03:25:26;5.80;;;1.00;;
68843;SDS011;55850;51.244;6.824;2022-09-09T03:30:35;3.60;;;0.93;;
68843;SDS011;55850;51.244;6.824;2022-09-09T03:35:44;3.33;;;0.85;;
68843;SDS011;55850;51.244;6.824;2022-09-09T03:40:54;1.48;;;0.70;;
68843;SDS011;55850;51.244;6.824;2022-09-09T03:46:05;1.17;;;0.70;;
68843;SDS011;55850;51.244;6.824;2022-09-09T03:51:11;2.70;;;0.70;;
68843;SDS011;55850;51.244;6.824;2022-09-09T03:56:17;5.68;;;1.10;;
68843;SDS011;55850;51.244;6.824;2022-09-09T04:01:26;1.43;;;0.70;;
68843;SDS011;55850;51.244;6.824;2022-09-09T04:06:33;2.95;;;0.90;;
68843;SDS011;55850;51.244;6.824;2022-09-09T04:11:38;2.70;;;0.80;;
68843;SDS011;55850;51.244;6.824;2022-09-09T04:16:47;2.30;;;0.97;;
68843;SDS011;55850;51.244;6.824;2022-09-09T04:21:53;2.33;;;1.07;;
68843;SDS011;55850;51.244;6.824;2022-09-09T04:26:59;4.10;;;1.20;;
68843;SDS011;55850;51.244;6.824;2022-09-09T04:32:08;2.60;;;1.10;;
68843;SDS011;55850;51.244;6.824;2022-09-09T04:37:14;2.23;;;1.10;;
68843;SDS011;55850;51.244;6.824;2022-09-09T04:42:20;4.25;;;1.23;;
68843;SDS011;55850;51.244;6.824;2022-09-09T04:47:30;4.57;;;1.00;;
68843;SDS011;55850;51.244;6.824;2022-09-09T04:52:36;4.47;;;1.30;;
68843;SDS011;55850;51.244;6.824;2022-09-09T04:57:43;3.17;;;0.93;;
68843;SDS011;55850;51.244;6.824;2022-09-09T05:02:52;3.10;;;1.10;;
68843;SDS011;55850;51.244;6.824;2022-09-09T05:08:02;3.73;;;0.97;;
68843;SDS011;55850;51.244;6.824;2022-09-09T05:13:09;4.60;;;1.10;;
68843;SDS011;55850;51.244;6.824;2022-09-09T05:18:19;1.88;;;1.00;;
68843;SDS011;55850;51.244;6.824;2022-09-09T05:23:24;3.75;;;1.88;;
68843;SDS011;55850;51.244;6.824;2022-09-09T05:28:33;6.77;;;1.23;;
68843;SDS011;55850;51.244;6.824;2022-09-09T05:33:45;5.38;;;1.00;;
68843;SDS011;55850;51.244;6.824;2022-09-09T05:38:52;4.00;;;1.10;;
68843;SDS011;55850;51.244;6.824;2022-09-09T05:44:00;2.73;;;1.20;;
68843;SDS011;55850;51.244;6.824;2022-09-09T05:49:13;1.77;;;1.20;;
68843;SDS011;55850;51.244;6.824;2022-09-09T05:54:22;3.90;;;1.20;;
68843;SDS011;55850;51.244;6.824;2022-09-09T05:59:29;2.53;;;1.00;;
68843;SDS011;55850;51.244;6.824;2022-09-09T06:04:38;3.80;;;1.67;;
68843;SDS011;55850;51.244;6.824;2022-09-09T06:09:46;5.72;;;1.25;;
68843;SDS011;55850;51.244;6.824;2022-09-09T06:14:53;6.65;;;1.65;;
68843;SDS011;55850;51.244;6.824;2022-09-09T06:20:02;4.57;;;1.40;;
68843;SDS011;55850;51.244;6.824;2022-09-09T06:25:09;3.50;;;1.42;;
68843;SDS011;55850;51.244;6.824;2022-09-09T06:30:15;2.65;;;0.82;;
68843;SDS011;55850;51.244;6.824;2022-09-09T06:35:24;5.70;;;1.07;;
68843;SDS011;55850;51.244;6.824;2022-09-09T06:40:30;5.97;;;1.15;;
68843;SDS011;55850;51.244;6.824;2022-09-09T06:45:37;7.07;;;1.40;;
68843;SDS011;55850;51.244;6.824;2022-09-09T06:50:46;2.43;;;0.90;;
68843;SDS011;55850;51.244;6.824;2022-09-09T06:55:52;4.20;;;0.90;;
68843;SDS011;55850;51.244;6.824;2022-09-09T07:01:02;2.33;;;0.88;;
68843;SDS011;55850;51.244;6.824;2022-09-09T07:11:24;2.87;;;0.77;;
68843;SDS011;55850;51.244;6.824;2022-09-09T07:16:33;4.03;;;1.10;;
68843;SDS011;55850;51.244;6.824;2022-09-09T07:21:42;4.97;;;0.90;;
68843;SDS011;55850;51.244;6.824;2022-09-09T07:26:52;3.33;;;1.20;;
68843;SDS011;55850;51.244;6.824;2022-09-09T07:31:58;2.42;;;1.00;;
68843;SDS011;55850;51.244;6.824;2022-09-09T07:37:10;4.30;;;0.82;;
68843;SDS011;55850;51.244;6.824;2022-09-09T07:42:18;5.60;;;0.90;;
68843;SDS011;55850;51.244;6.824;2022-09-09T07:47:24;3.63;;;0.80;;
68843;SDS011;55850;51.244;6.824;2022-09-09T07:52:32;2.08;;;1.00;;
68843;SDS011;55850;51.244;6.824;2022-09-09T07:57:40;4.15;;;1.00;;
68843;SDS011;55850;51.244;6.824;2022-09-09T08:02:47;5.63;;;1.40;;
68843;SDS011;55850;51.244;6.824;2022-09-09T08:07:55;2.88;;;0.80;;
68843;SDS011;55850;51.244;6.824;2022-09-09T08:13:01;3.83;;;1.05;;
68843;SDS011;55850;51.244;6.824;2022-09-09T08:18:19;3.90;;;1.10;;
68843;SDS011;55850;51.244;6.824;2022-09-09T08:23:28;3.80;;;1.13;;
68843;SDS011;55850;51.244;6.824;2022-09-09T08:28:33;5.68;;;1.27;;
68843;SDS011;55850;51.244;6.824;2022-09-09T08:33:39;4.23;;;1.10;;
68843;SDS011;55850;51.244;6.824;2022-09-09T08:38:50;4.77;;;1.00;;
68843;SDS011;55850;51.244;6.824;2022-09-09T08:44:02;2.50;;;0.98;;
68843;SDS011;55850;51.244;6.824;2022-09-09T08:49:19;2.72;;;1.15;;
68843;SDS011;55850;51.244;6.824;2022-09-09T08:54:45;4.70;;;1.57;;
68843;SDS011;55850;51.244;6.824;2022-09-09T08:59:55;4.13;;;1.00;;
68843;SDS011;55850;51.244;6.824;2022-09-09T09:05:15;3.72;;;0.88;;
68843;SDS011;55850;51.244;6.824;2022-09-09T09:10:38;2.00;;;0.70;;
68843;SDS011;55850;51.244;6.824;2022-09-09T09:16:00;2.95;;;1.00;;
68843;SDS011;55850;51.244;6.824;2022-09-09T09:21:10;6.82;;;0.80;;
68843;SDS011;55850;51.244;6.824;2022-09-09T09:26:29;4.27;;;1.30;;
68843;SDS011;55850;51.244;6.824;2022-09-09T09:31:37;3.53;;;1.00;;
68843;SDS011;55850;51.244;6.824;2022-09-09T09:36:44;3.38;;;0.68;;
68843;SDS011;55850;51.244;6.824;2022-09-09T09:42:00;2.97;;;1.00;;
68843;SDS011;55850;51.244;6.824;2022-09-09T09:47:21;2.93;;;1.00;;
68843;SDS011;55850;51.244;6.824;2022-09-09T09:52:36;1.17;;;0.68;;
68843;SDS011;55850;51.244;6.824;2022-09-09T09:57:47;3.67;;;0.70;;
68843;SDS011;55850;51.244;6.824;2022-09-09T10:02:54;1.80;;;0.60;;
68843;SDS011;55850;51.244;6.824;2022-09-09T10:08:08;2.30;;;0.82;;
68843;SDS011;55850;51.244;6.824;2022-09-09T10:13:20;3.05;;;0.90;;
68843;SDS011;55850;51.244;6.824;2022-09-09T10:18:41;2.87;;;0.93;;
68843;SDS011;55850;51.244;6.824;2022-09-09T10:24:02;2.83;;;0.97;;
68843;SDS011;55850;51.244;6.824;2022-09-09T10:29:30;4.43;;;1.15;;
68843;SDS011;55850;51.244;6.824;2022-09-09T10:34:52;2.00;;;0.90;;
68843;SDS011;55850;51.244;6.824;2022-09-09T10:40:02;2.33;;;0.80;;
68843;SDS011;55850;51.244;6.824;2022-09-09T10:45:23;1.77;;;0.73;;
68843;SDS011;55850;51.244;6.824;2022-09-09T10:50:41;6.32;;;1.02;;
68843;SDS011;55850;51.244;6.824;2022-09-09T10:56:06;1.90;;;0.90;;
68843;SDS011;55850;51.244;6.824;2022-09-09T11:01:19;2.47;;;0.75;;
68843;SDS011;55850;51.244;6.824;2022-09-09T11:06:29;2.72;;;0.80;;
68843;SDS011;55850;51.244;6.824;2022-09-09T11:11:41;4.30;;;0.80;;
68843;SDS011;55850;51.244;6.824;2022-09-09T11:16:56;1.37;;;0.67;;
68843;SDS011;55850;51.244;6.824;2022-09-09T11:22:06;0.90;;;0.40;;
68843;SDS011;55850;51.244;6.824;2022-09-09T11:27:20;2.75;;;0.73;;
68843;SDS011;55850;51.244;6.824;2022-09-09T11:32:43;2.50;;;0.70;;
68843;SDS011;55850;51.244;6.824;2022-09-09T11:43:30;3.33;;;0.90;;
68843;SDS011;55850;51.244;6.824;2022-09-09T11:48:40;4.40;;;0.80;;
68843;SDS011;55850;51.244;6.824;2022-09-09T11:53:49;2.60;;;0.90;;
68843;SDS011;55850;51.244;6.824;2022-09-09T11:58:57;2.80;;;0.80;;
68843;SDS011;55850;51.244;6.824;2022-09-09T12:09:43;2.00;;;0.73;;
68843;SDS011;55850;51.244;6.824;2022-09-09T12:14:57;1.70;;;0.70;;
68843;SDS011;55850;51.244;6.824;2022-09-09T12:20:22;3.47;;;0.88;;
68843;SDS011;55850;51.244;6.824;2022-09-09T12:25:33;3.77;;;0.73;;
68843;SDS011;55850;51.244;6.824;2022-09-09T12:30:49;1.77;;;0.60;;
68843;SDS011;55850;51.244;6.824;2022-09-09T12:36:03;1.17;;;0.80;;
68843;SDS011;55850;51.244;6.824;2022-09-09T12:41:21;2.17;;;0.50;;
68843;SDS011;55850;51.244;6.824;2022-09-09T12:46:32;3.22;;;0.63;;
68843;SDS011;55850;51.244;6.824;2022-09-09T12:51:45;2.42;;;0.63;;
68843;SDS011;55850;51.244;6.824;2022-09-09T12:56:50;1.80;;;1.00;;
68843;SDS011;55850;51.244;6.824;2022-09-09T13:01:56;5.10;;;0.70;;
68843;SDS011;55850;51.244;6.824;2022-09-09T13:07:08;3.80;;;0.55;;
68843;SDS011;55850;51.244;6.824;2022-09-09T13:12:15;2.17;;;0.68;;
68843;SDS011;55850;51.244;6.824;2022-09-09T13:17:23;3.17;;;0.80;;
68843;SDS011;55850;51.244;6.824;2022-09-09T13:22:34;2.28;;;0.80;;
68843;SDS011;55850;51.244;6.824;2022-09-09T13:27:41;3.70;;;0.70;;
68843;SDS011;55850;51.244;6.824;2022-09-09T13:32:59;5.00;;;0.93;;
68843;SDS011;55850;51.244;6.824;2022-09-09T13:38:12;3.08;;;0.80;;
68843;SDS011;55850;51.244;6.824;2022-09-09T13:43:20;1.80;;;0.60;;
68843;SDS011;55850;51.244;6.824;2022-09-09T13:48:28;4.13;;;0.80;;
68843;SDS011;55850;51.244;6.824;2022-09-09T13:53:37;3.37;;;0.70;;
68843;SDS011;55850;51.244;6.824;2022-09-09T13:58:42;1.67;;;0.70;;
68843;SDS011;55850;51.244;6.824;2022-09-09T14:03:48;3.72;;;0.77;;
68843;SDS011;55850;51.244;6.824;2022-09-09T14:08:57;2.53;;;0.67;;
68843;SDS011;55850;51.244;6.824;2022-09-09T14:14:03;2.95;;;0.60;;
68843;SDS011;55850;51.244;6.824;2022-09-09T14:19:09;5.80;;;1.02;;
68843;SDS011;55850;51.244;6.824;2022-09-09T14:24:17;3.10;;;0.60;;
68843;SDS011;55850;51.244;6.824;2022-09-09T14:29:23;2.95;;;1.02;;
68843;SDS011;55850;51.244;6.824;2022-09-09T14:34:29;3.47;;;0.90;;
68843;SDS011;55850;51.244;6.824;2022-09-09T14:39:37;3.50;;;0.70;;
68843;SDS011;55850;51.244;6.824;2022-09-09T14:44:46;1.90;;;0.43;;
68843;SDS011;55850;51.244;6.824;2022-09-09T14:49:52;0.52;;;0.30;;
68843;SDS011;55850;51.244;6.824;2022-09-09T14:55:01;1.55;;;0.43;;
68843;SDS011;55850;51.244;6.824;2022-09-09T15:00:09;0.80;;;0.40;;
68843;SDS011;55850;51.244;6.824;2022-09-09T15:05:15;1.52;;;0.47;;
68843;SDS011;55850;51.244;6.824;2022-09-09T15:10:24;0.38;;;0.30;;
68843;SDS011;55850;51.244;6.824;2022-09-09T15:15:30;0.57;;;0.20;;
68843;SDS011;55850;51.244;6.824;2022-09-09T15:20:37;1.17;;;0.40;;
68843;SDS011;55850;51.244;6.824;2022-09-09T15:25:53;0.82;;;0.50;;
68843;SDS011;55850;51.244;6.824;2022-09-09T15:30:59;1.27;;;0.30;;
68843;SDS011;55850;51.244;6.824;2022-09-09T15:36:15;0.60;;;0.20;;
68843;SDS011;55850;51.244;6.824;2022-09-09T15:41:24;1.75;;;0.70;;
68843;SDS011;55850;51.244;6.824;2022-09-09T15:46:31;1.60;;;0.50;;
68843;SDS011;55850;51.244;6.824;2022-09-09T15:51:40;1.20;;;0.60;;
68843;SDS011;55850;51.244;6.824;2022-09-09T15:56:51;1.60;;;0.60;;
68843;SDS011;55850;51.244;6.824;2022-09-09T16:01:58;2.20;;;0.88;;
68843;SDS011;55850;51.244;6.824;2022-09-09T16:07:05;2.53;;;1.30;;
68843;SDS011;55850;51.244;6.824;2022-09-09T16:12:14;3.10;;;1.05;;
68843;SDS011;55850;51.244;6.824;2022-09-09T16:17:19;2.03;;;1.00;;
68843;SDS011;55850;51.244;6.824;2022-09-09T16:22:26;3.27;;;0.60;;
68843;SDS011;55850;51.244;6.824;2022-09-09T16:27:34;2.37;;;0.93;;
68843;SDS011;55850;51.244;6.824;2022-09-09T16:32:40;4.40;;;0.90;;
68843;SDS011;55850;51.244;6.824;2022-09-09T16:37:46;3.33;;;0.63;;
68843;SDS011;55850;51.244;6.824;2022-09-09T16:42:54;2.83;;;0.70;;
68843;SDS011;55850;51.244;6.824;2022-09-09T16:48:00;2.40;;;0.70;;
68843;SDS011;55850;51.244;6.824;2022-09-09T16:53:06;4.55;;;1.40;;
68843;SDS011;55850;51.244;6.824;2022-09-09T16:58:14;2.97;;;1.13;;
68843;SDS011;55850;51.244;6.824;2022-09-09T17:03:21;2.95;;;1.05;;
68843;SDS011;55850;51.244;6.824;2022-09-09T17:08:27;3.38;;;1.10;;
68843;SDS011;55850;51.244;6.824;2022-09-09T17:13:35;2.17;;;0.90;;
68843;SDS011;55850;51.244;6.824;2022-09-09T17:18:41;4.17;;;0.90;;
68843;SDS011;55850;51.244;6.824;2022-09-09T17:23:48;3.20;;;0.98;;
68843;SDS011;55850;51.244;6.824;2022-09-09T17:28:57;3.97;;;1.50;;
68843;SDS011;55850;51.244;6.824;2022-09-09T17:34:04;2.80;;;1.13;;
68843;SDS011;55850;51.244;6.824;2022-09-09T17:39:10;2.15;;;1.10;;
68843;SDS011;55850;51.244;6.824;2022-09-09T17:44:18;2.72;;;1.23;;
68843;SDS011;55850;51.244;6.824;2022-09-09T17:49:23;2.13;;;1.40;;
68843;SDS011;55850;51.244;6.824;2022-09-09T17:54:29;3.58;;;2.40;;
68843;SDS011;55850;51.244;6.824;2022-09-09T17:59:38;7.68;;;4.03;;
68843;SDS011;55850;51.244;6.824;2022-09-09T18:04:44;6.37;;;2.87;;
68843;SDS011;55850;51.244;6.824;2022-09-09T18:09:50;4.23;;;1.87;;
68843;SDS011;55850;51.244;6.824;2022-09-09T18:14:58;3.85;;;2.08;;
68843;SDS011;55850;51.244;6.824;2022-09-09T18:20:05;4.95;;;1.40;;
68843;SDS011;55850;51.244;6.824;2022-09-09T18:25:12;1.30;;;0.90;;
68843;SDS011;55850;51.244;6.824;2022-09-09T18:30:20;2.92;;;1.45;;
68843;SDS011;55850;51.244;6.824;2022-09-09T18:35:25;2.38;;;1.00;;
68843;SDS011;55850;51.244;6.824;2022-09-09T18:40:31;2.70;;;1.33;;
68843;SDS011;55850;51.244;6.824;2022-09-09T18:45:39;3.22;;;1.25;;
68843;SDS011;55850;51.244;6.824;2022-09-09T18:50:45;2.15;;;1.08;;
68843;SDS011;55850;51.244;6.824;2022-09-09T18:55:56;7.20;;;1.30;;
68843;SDS011;55850;51.244;6.824;2022-09-09T19:01:07;4.93;;;1.67;;
68843;SDS011;55850;51.244;6.824;2022-09-09T19:06:15;3.35;;;2.20;;
68843;SDS011;55850;51.244;6.824;2022-09-09T19:11:23;4.78;;;2.15;;
68843;SDS011;55850;51.244;6.824;2022-09-09T19:16:33;4.63;;;2.50;;
68843;SDS011;55850;51.244;6.824;2022-09-09T19:21:40;4.22;;;1.50;;
68843;SDS011;55850;51.244;6.824;2022-09-09T19:26:47;4.57;;;1.85;;
68843;SDS011;55850;51.244;6.824;2022-09-09T19:31:57;3.93;;;1.80;;
68843;SDS011;55850;51.244;6.824;2022-09-09T19:37:23;4.68;;;1.70;;
68843;SDS011;55850;51.244;6.824;2022-09-09T19:42:29;3.20;;;1.38;;
68843;SDS011;55850;51.244;6.824;2022-09-09T19:47:37;3.17;;;1.43;;
68843;SDS011;55850;51.244;6.824;2022-09-09T19:52:43;3.50;;;1.30;;
68843;SDS011;55850;51.244;6.824;2022-09-09T19:57:49;2.92;;;1.10;;
68843;SDS011;55850;51.244;6.824;2022-09-09T20:02:58;4.00;;;1.35;;
68843;SDS011;55850;51.244;6.824;2022-09-09T20:08:20;2.90;;;1.40;;
68843;SDS011;55850;51.244;6.824;2022-09-09T20:13:25;3.83;;;1.10;;
68843;SDS011;55850;51.244;6.824;2022-09-09T20:18:36;3.50;;;1.00;;
68843;SDS011;55850;51.244;6.824;2022-09-09T20:23:43;2.97;;;0.90;;
68843;SDS011;55850;51.244;6.824;2022-09-09T20:28:49;1.60;;;1.00;;
68843;SDS011;55850;51.244;6.824;2022-09-09T20:33:59;6.20;;;1.85;;
68843;SDS011;55850;51.244;6.824;2022-09-09T20:39:05;1.77;;;1.00;;
68843;SDS011;55850;51.244;6.824;2022-09-09T20:44:13;3.93;;;1.10;;
68843;SDS011;55850;51.244;6.824;2022-09-09T20:49:23;4.78;;;1.20;;
68843;SDS011;55850;51.244;6.824;2022-09-09T20:54:29;4.13;;;1.00;;
68843;SDS011;55850;51.244;6.824;2022-09-09T20:59:36;3.60;;;1.03;;
68843;SDS011;55850;51.244;6.824;2022-09-09T21:04:45;2.75;;;0.80;;
68843;SDS011;55850;51.244;6.824;2022-09-09T21:09:53;5.03;;;1.20;;
68843;SDS011;55850;51.244;6.824;2022-09-09T21:15:00;1.47;;;0.80;;
68843;SDS011;55850;51.244;6.824;2022-09-09T21:20:09;2.45;;;1.10;;
68843;SDS011;55850;51.244;6.824;2022-09-09T21:25:15;2.75;;;1.08;;
68843;SDS011;55850;51.244;6.824;2022-09-09T21:30:21;3.87;;;1.23;;
68843;SDS011;55850;51.244;6.824;2022-09-09T21:35:45;4.13;;;0.80;;
68843;SDS011;55850;51.244;6.824;2022-09-09T21:40:51;3.17;;;1.10;;
68843;SDS011;55850;51.244;6.824;2022-09-09T21:45:57;3.72;;;0.90;;
68843;SDS011;55850;51.244;6.824;2022-09-09T21:51:09;3.27;;;1.30;;
68843;SDS011;55850;51.244;6.824;2022-09-09T21:56:17;2.97;;;1.10;;
68843;SDS011;55850;51.244;6.824;2022-09-09T22:01:24;2.22;;;1.20;;
68843;SDS011;55850;51.244;6.824;2022-09-09T22:06:36;1.73;;;0.70;;
68843;SDS011;55850;51.244;6.824;2022-09-09T22:11:42;2.50;;;0.95;;
68843;SDS011;55850;51.244;6.824;2022-09-09T22:16:47;2.40;;;1.00;;
68843;SDS011;55850;51.244;6.824;2022-09-09T22:21:56;2.17;;;0.90;;
68843;SDS011;55850;51.244;6.824;2022-09-09T22:27:02;5.37;;;1.20;;
68843;SDS011;55850;51.244;6.824;2022-09-09T22:32:07;3.10;;;0.80;;
68843;SDS011;55850;51.244;6.824;2022-09-09T22:37:16;2.10;;;0.85;;
68843;SDS011;55850;51.244;6.824;2022-09-09T22:42:24;4.10;;;1.00;;
68843;SDS011;55850;51.244;6.824;2022-09-09T22:47:29;3.42;;;0.90;;
68843;SDS011;55850;51.244;6.824;2022-09-09T22:52:39;5.35;;;1.35;;
68843;SDS011;55850;51.244;6.824;2022-09-09T22:57:44;2.50;;;1.00;;
68843;SDS011;55850;51.244;6.824;2022-09-09T23:02:50;2.90;;;1.10;;
68843;SDS011;55850;51.244;6.824;2022-09-09T23:07:58;3.20;;;1.35;;
68843;SDS011;55850;51.244;6.824;2022-09-09T23:13:04;2.53;;;1.00;;
68843;SDS011;55850;51.244;6.824;2022-09-09T23:18:10;2.87;;;1.00;;
68843;SDS011;55850;51.244;6.824;2022-09-09T23:23:18;4.80;;;1.10;;
68843;SDS011;55850;51.244;6.824;2022-09-09T23:28:28;2.70;;;0.90;;
68843;SDS011;55850;51.244;6.824;2022-09-09T23:33:36;3.67;;;1.00;;
68843;SDS011;55850;51.244;6.824;2022-09-09T23:38:44;2.00;;;0.90;;
68843;SDS011;55850;51.244;6.824;2022-09-09T23:43:51;3.72;;;0.73;;
68843;SDS011;55850;51.244;6.824;2022-09-09T23:48:57;3.13;;;0.90;;
68843;SDS011;55850;51.244;6.824;2022-09-09T23:54:06;1.35;;;0.63;;
68843;SDS011;55850;51.244;6.824;2022-09-09T23:59:13;1.88;;;0.70;;
